Time;durP1;ratioP1;P1;durP2;ratioP2;P2;SDS_P1;SDS_P2;PMS_P1;PMS_P2;Temp;Humidity;BMP_temperature;BMP_pressure;BME280_temperature;BME280_humidity;BME280_pressure;Samples;Min_cycle;Max_cycle;Signal;HPM_P1;HPM_P2
2023/07/02 00:00:32;;;;;;;;;12.00;11.00;;;;;20.65;55.77;98408.69;4912277;29;8907;-76
2023/07/02 00:03:21;;;;;;;;;7.00;7.00;;;;;20.70;55.40;98412.81;4911444;29;8867;-76
2023/07/02 00:05:54;;;;;;;;;7.60;7.60;;;;;20.73;55.12;98410.75;4926947;29;8899;-74
2023/07/02 00:08:23;;;;;;;;;11.00;9.40;;;;;20.78;54.91;98411.19;4911032;29;8863;-75
2023/07/02 00:10:52;;;;;;;;;9.00;8.40;;;;;20.80;55.10;98409.28;4912237;29;8897;-76
2023/07/02 00:13:21;;;;;;;;;9.60;9.60;;;;;20.84;55.07;98415.19;4912281;29;8880;-75
2023/07/02 00:15:50;;;;;;;;;11.00;10.80;;;;;20.90;54.69;98416.50;4911812;29;8891;-75
2023/07/02 00:18:18;;;;;;;;;10.80;10.20;;;;;21.09;54.29;98413.19;4911883;29;8889;-73
2023/07/02 00:20:47;;;;;;;;;10.40;10.20;;;;;20.99;54.46;98422.00;4913387;29;8883;-74
2023/07/02 00:23:18;;;;;;;;;12.60;11.00;;;;;20.91;54.77;98413.72;4916051;29;8883;-75
2023/07/02 00:25:47;;;;;;;;;10.80;10.80;;;;;20.90;55.04;98413.84;4914443;29;8883;-74
2023/07/02 00:28:17;;;;;;;;;12.20;11.00;;;;;20.91;54.87;98416.38;4915761;29;8982;-74
2023/07/02 00:30:46;;;;;;;;;13.60;12.20;;;;;20.83;55.52;98421.53;4913548;29;9691;-73
2023/07/02 00:33:16;;;;;;;;;13.80;12.60;;;;;20.84;55.51;98410.72;4916709;29;8922;-74
2023/07/02 00:35:45;;;;;;;;;11.80;10.20;;;;;20.87;55.46;98417.63;4915446;29;8875;-76
2023/07/02 00:38:14;;;;;;;;;12.40;11.20;;;;;20.79;55.58;98418.25;4914257;29;8879;-74
2023/07/02 00:40:45;;;;;;;;;12.60;12.00;;;;;20.82;55.28;98420.69;4915449;29;8899;-75
2023/07/02 00:43:14;;;;;;;;;10.00;8.20;;;;;20.84;55.36;98412.53;4915615;29;8859;-74
2023/07/02 00:45:43;;;;;;;;;11.20;11.00;;;;;20.80;55.67;98417.28;4915526;29;8891;-75
2023/07/02 00:48:12;;;;;;;;;13.40;10.80;;;;;20.79;55.64;98420.91;4898532;29;8875;-74
2023/07/02 00:50:42;;;;;;;;;10.20;10.20;;;;;20.80;55.78;98427.09;4915621;29;8909;-75
2023/07/02 00:53:11;;;;;;;;;15.00;11.80;;;;;20.84;56.05;98423.19;4913815;29;8875;-74
2023/07/02 00:55:40;;;;;;;;;16.60;13.80;;;;;20.61;56.61;98428.59;4914174;29;8887;-74
2023/07/02 00:58:10;;;;;;;;;12.00;12.00;;;;;20.48;57.06;98427.88;4913973;29;9029;-73
2023/07/02 01:00:40;;;;;;;;;11.20;10.80;;;;;20.49;57.03;98419.75;4897674;29;8903;-73
2023/07/02 01:03:09;;;;;;;;;15.60;12.80;;;;;20.55;56.93;98430.91;4897522;29;8891;-74
2023/07/02 01:05:39;;;;;;;;;16.40;15.20;;;;;20.61;56.64;98433.94;4913942;29;8914;-76
2023/07/02 01:08:10;;;;;;;;;15.40;13.40;;;;;20.65;56.59;98427.41;4914983;29;8843;-74
2023/07/02 01:10:39;;;;;;;;;14.40;13.60;;;;;20.50;57.38;98431.31;4929485;29;8890;-73
2023/07/02 01:13:13;;;;;;;;;15.20;14.20;;;;;20.59;57.03;98438.53;4913444;29;8843;-75
2023/07/02 01:15:43;;;;;;;;;15.20;12.60;;;;;20.64;57.22;98439.03;4914830;29;8887;-75
2023/07/02 01:18:14;;;;;;;;;15.00;12.60;;;;;20.65;57.08;98443.41;4913596;29;8871;-74
2023/07/02 01:20:45;;;;;;;;;13.40;13.20;;;;;20.71;56.70;98449.22;4914975;29;8917;-74
2023/07/02 01:23:16;;;;;;;;;12.60;12.40;;;;;20.67;57.13;98448.59;4929180;29;8875;-75
2023/07/02 01:25:45;;;;;;;;;13.00;12.40;;;;;20.56;57.17;98441.47;4928749;29;8875;-74
2023/07/02 01:28:14;;;;;;;;;15.60;14.60;;;;;20.56;57.04;98454.81;4911978;29;8865;-75
2023/07/02 01:30:42;;;;;;;;;14.80;14.20;;;;;20.62;57.21;98449.00;4912049;29;9178;-75
2023/07/02 01:33:11;;;;;;;;;13.20;11.60;;;;;20.35;58.08;98445.84;4911318;29;8850;-74
2023/07/02 01:35:40;;;;;;;;;11.80;11.80;;;;;20.45;57.40;98446.81;4911732;29;8877;-74
2023/07/02 01:38:10;;;;;;;;;13.20;13.20;;;;;20.56;57.43;98449.50;4912201;29;9047;-75
2023/07/02 01:40:39;;;;;;;;;14.00;14.00;;;;;20.64;56.87;98447.03;4896090;29;9611;-74
2023/07/02 01:43:08;;;;;;;;;13.60;13.00;;;;;20.69;57.04;98446.69;4912476;29;8899;-74
2023/07/02 01:45:38;;;;;;;;;13.00;12.20;;;;;20.62;56.99;98446.31;4896312;29;8889;-75
2023/07/02 01:48:07;;;;;;;;;14.40;13.00;;;;;20.64;56.81;98441.69;4895965;29;8879;-74
2023/07/02 01:50:36;;;;;;;;;11.80;11.00;;;;;20.69;56.70;98444.03;4896096;29;8873;-75
2023/07/02 01:53:05;;;;;;;;;16.40;13.60;;;;;20.74;56.64;98436.47;4896004;29;8881;-74
2023/07/02 01:55:35;;;;;;;;;14.60;14.20;;;;;20.73;56.75;98436.59;4911543;29;9056;-74
2023/07/02 01:58:04;;;;;;;;;14.20;14.20;;;;;20.74;56.19;98436.47;4912177;29;8909;-75
2023/07/02 02:00:33;;;;;;;;;13.40;13.00;;;;;20.20;58.23;98435.41;4929060;29;8986;-75
2023/07/02 02:03:02;;;;;;;;;8.60;8.40;;;;;20.12;58.25;98434.28;4911694;29;8880;-75
2023/07/02 02:05:31;;;;;;;;;16.20;16.20;;;;;20.19;58.07;98422.16;4911076;29;8882;-75
2023/07/02 02:08:00;;;;;;;;;14.20;14.20;;;;;20.26;57.68;98431.44;4908181;29;9038;-75
2023/07/02 02:10:29;;;;;;;;;16.40;13.80;;;;;20.01;58.45;98435.13;4892322;29;8931;-75
2023/07/02 02:13:00;;;;;;;;;13.40;13.40;;;;;19.99;58.50;98431.72;4892459;29;8888;-74
2023/07/02 02:15:29;;;;;;;;;14.60;13.20;;;;;20.12;58.17;98427.13;4892212;29;9650;-73
2023/07/02 02:17:58;;;;;;;;;14.60;14.00;;;;;20.18;57.87;98428.47;4892604;29;8869;-75
2023/07/02 02:20:27;;;;;;;;;13.80;13.00;;;;;20.08;57.92;98431.88;4877026;29;9031;-75
2023/07/02 02:22:56;;;;;;;;;16.20;16.20;;;;;19.83;58.89;98435.59;4895427;29;8888;-77
2023/07/02 02:25:25;;;;;;;;;12.80;12.80;;;;;19.69;59.29;98427.81;4892185;29;8892;-74
2023/07/02 02:27:54;;;;;;;;;12.60;12.60;;;;;19.80;58.79;98438.50;4876831;29;8872;-75
2023/07/02 02:30:24;;;;;;;;;16.40;16.00;;;;;19.70;59.37;98430.34;4892132;29;8877;-74
2023/07/02 02:32:54;;;;;;;;;12.60;12.00;;;;;19.58;59.60;98435.78;4892051;29;9659;-74
2023/07/02 02:35:23;;;;;;;;;13.00;12.40;;;;;19.64;59.48;98429.97;4891975;29;8911;-72
2023/07/02 02:37:53;;;;;;;;;16.80;13.40;;;;;19.67;59.17;98430.59;4901393;29;8848;-75
2023/07/02 02:40:23;;;;;;;;;11.60;11.60;;;;;19.82;58.74;98428.56;4912381;29;8872;-73
2023/07/02 02:42:52;;;;;;;;;13.60;12.80;;;;;19.93;58.53;98432.22;4927664;29;9657;-73
2023/07/02 02:45:20;;;;;;;;;14.40;13.40;;;;;19.92;58.25;98439.38;4911304;29;8863;-75
2023/07/02 02:47:51;;;;;;;;;12.20;11.20;;;;;19.92;58.16;98443.88;4929652;29;8870;-74
2023/07/02 02:50:20;;;;;;;;;11.60;11.60;;;;;19.99;57.91;98439.72;4929727;29;9620;-74
2023/07/02 02:52:49;;;;;;;;;14.00;13.40;;;;;19.28;60.18;98443.25;4929238;29;8877;-74
2023/07/02 02:55:18;;;;;;;;;15.40;14.80;;;;;19.46;59.23;98435.72;4913567;29;8988;-74
2023/07/02 02:57:47;;;;;;;;;13.20;12.80;;;;;19.56;59.03;98451.03;4929595;29;8874;-75
2023/07/02 03:00:16;;;;;;;;;17.20;16.20;;;;;19.28;59.80;98445.94;4913838;29;8889;-75
2023/07/02 03:02:45;;;;;;;;;16.80;15.60;;;;;19.03;60.62;98443.41;4929216;29;8857;-75
2023/07/02 03:05:16;;;;;;;;;15.40;14.00;;;;;18.98;60.70;98448.19;4929296;29;9739;-75
2023/07/02 03:07:45;;;;;;;;;14.60;14.20;;;;;18.73;61.62;98449.97;4897866;29;9020;-76
2023/07/02 03:10:13;;;;;;;;;13.80;12.00;;;;;18.91;60.94;98450.44;4929387;29;9012;-73
2023/07/02 03:12:43;;;;;;;;;15.00;13.60;;;;;18.97;60.76;98442.03;4945007;29;8878;-75
2023/07/02 03:15:11;;;;;;;;;13.00;12.00;;;;;19.07;60.49;98445.72;4913289;29;8945;-75
2023/07/02 03:17:41;;;;;;;;;16.60;14.00;;;;;19.04;60.38;98447.75;4913364;29;9022;-77
2023/07/02 03:20:10;;;;;;;;;12.80;12.40;;;;;18.88;61.03;98440.88;4894980;29;8878;-74
2023/07/02 03:22:40;;;;;;;;;18.20;15.40;;;;;18.83;61.04;98440.38;4906997;29;8882;-75
2023/07/02 03:25:10;;;;;;;;;16.40;14.00;;;;;18.58;62.15;98446.59;4893946;29;8945;-73
2023/07/02 03:27:39;;;;;;;;;15.40;15.00;;;;;18.70;61.62;98448.34;4893711;29;8854;-75
2023/07/02 03:30:08;;;;;;;;;16.80;15.00;;;;;18.61;62.18;98457.03;4911667;29;8921;-75
2023/07/02 03:32:37;;;;;;;;;15.40;14.60;;;;;18.67;62.00;98453.91;4913324;29;8863;-75
2023/07/02 03:35:07;;;;;;;;;14.60;13.80;;;;;18.93;60.89;98449.41;4880444;29;8880;-75
2023/07/02 03:37:36;;;;;;;;;16.40;14.00;;;;;19.15;60.11;98463.78;4912755;29;8851;-75
2023/07/02 03:40:07;;;;;;;;;50.75;42.50;;;;;19.33;60.00;98470.41;4894077;29;8899;-75
2023/07/02 03:42:36;;;;;;;;;21.00;18.25;;;;;19.27;59.85;98464.69;4909865;29;8912;-74
2023/07/02 03:45:06;;;;;;;;;20.00;20.00;;;;;19.51;59.26;98462.00;4879058;29;8900;-74
2023/07/02 03:47:35;;;;;;;;;15.60;14.40;;;;;18.85;61.47;98472.22;4894264;29;9753;-75
2023/07/02 03:50:04;;;;;;;;;18.20;18.20;;;;;18.82;61.43;98464.44;4909923;29;8930;-74
2023/07/02 03:52:33;;;;;;;;;16.60;16.00;;;;;18.56;62.55;98475.13;4909828;29;8892;-75
2023/07/02 03:55:01;;;;;;;;;18.00;15.20;;;;;18.70;61.99;98472.31;4909260;29;8942;-75
2023/07/02 03:57:32;;;;;;;;;18.20;16.20;;;;;18.72;61.97;98475.75;4911982;29;8869;-74
2023/07/02 04:00:01;;;;;;;;;16.60;14.60;;;;;18.53;62.79;98468.22;4896826;29;8870;-74
2023/07/02 04:02:32;;;;;;;;;17.20;15.60;;;;;18.60;62.46;98478.41;4928961;29;9048;-76
2023/07/02 04:05:02;;;;;;;;;14.80;13.80;;;;;18.47;63.02;98481.94;4928689;29;8874;-76
2023/07/02 04:07:31;;;;;;;;;16.60;14.60;;;;;18.43;63.35;98484.94;4928989;29;8866;-73
2023/07/02 04:10:00;;;;;;;;;12.80;12.00;;;;;18.59;62.63;98484.69;4930884;29;8916;-75
2023/07/02 04:12:29;;;;;;;;;13.60;13.20;;;;;18.66;62.32;98483.31;4927150;29;8887;-75
2023/07/02 04:14:59;;;;;;;;;16.20;14.20;;;;;18.52;62.65;98493.13;4912403;29;8891;-74
2023/07/02 04:17:28;;;;;;;;;12.60;12.60;;;;;18.31;63.54;98498.16;4925214;29;8851;-74
2023/07/02 04:19:56;;;;;;;;;16.00;15.80;;;;;18.35;63.42;98507.59;4911951;29;8974;-75
2023/07/02 04:22:25;;;;;;;;;12.00;12.00;;;;;18.59;62.61;98500.66;4912270;29;8867;-75
2023/07/02 04:24:54;;;;;;;;;15.80;15.60;;;;;18.62;62.05;98501.28;4912475;29;8902;-74
2023/07/02 04:27:29;;;;;;;;;13.20;12.40;;;;;18.56;62.38;98507.06;4912651;29;9625;-74
2023/07/02 04:30:19;;;;;;;;;38.60;31.00;;;;;18.64;62.08;98493.22;4912302;29;8883;-74
2023/07/02 04:32:48;;;;;;;;;17.80;15.40;;;;;18.48;62.45;98502.28;4912235;29;8898;-75
2023/07/02 04:35:17;;;;;;;;;14.60;14.60;;;;;18.05;63.83;98505.25;4911998;29;8974;-73
2023/07/02 04:37:47;;;;;;;;;15.00;13.00;;;;;18.14;63.86;98509.09;4911927;29;8883;-74
2023/07/02 04:40:15;;;;;;;;;16.00;15.80;;;;;18.12;63.73;98511.03;4912057;29;8895;-74
2023/07/02 04:42:46;;;;;;;;;14.60;12.80;;;;;18.54;62.56;98511.66;4912374;29;8871;-75
2023/07/02 04:45:16;;;;;;;;;12.00;11.60;;;;;18.00;64.42;98515.31;4911775;29;8879;-74
2023/07/02 04:47:47;;;;;;;;;17.20;15.20;;;;;18.25;63.28;98519.88;4911821;29;8868;-75
2023/07/02 04:50:16;;;;;;;;;15.80;15.20;;;;;18.45;62.66;98514.94;4911543;29;8949;-74
2023/07/02 04:52:46;;;;;;;;;17.00;16.40;;;;;17.79;65.19;98525.59;4911835;29;8883;-74
2023/07/02 04:55:14;;;;;;;;;20.00;18.40;;;;;17.38;66.99;98532.72;4911838;29;8979;-74
2023/07/02 04:57:44;;;;;;;;;14.00;14.00;;;;;17.46;66.77;98526.06;4911991;29;8891;-74
2023/07/02 05:00:14;;;;;;;;;15.60;15.60;;;;;17.59;65.83;98526.97;4911359;29;8875;-76
2023/07/02 05:02:43;;;;;;;;;14.80;14.80;;;;;18.10;63.97;98535.06;4894112;29;8867;-75
2023/07/02 05:05:13;;;;;;;;;14.80;13.80;;;;;17.93;64.56;98536.19;4893573;29;8902;-75
2023/07/02 05:07:42;;;;;;;;;15.60;15.00;;;;;17.60;65.76;98539.28;4912739;29;8863;-74
2023/07/02 05:10:11;;;;;;;;;14.40;12.80;;;;;17.55;66.00;98544.03;4915029;29;8970;-75
2023/07/02 05:12:40;;;;;;;;;16.00;16.00;;;;;17.18;67.49;98547.25;4913403;29;8886;-75
2023/07/02 05:15:09;;;;;;;;;14.80;14.80;;;;;17.22;67.67;98542.59;4914963;29;8867;-75
2023/07/02 05:17:38;;;;;;;;;15.80;15.80;;;;;17.37;67.19;98538.13;4914352;29;9002;-73
2023/07/02 05:20:09;;;;;;;;;16.20;14.40;;;;;17.01;68.90;98547.50;4912912;29;9676;-77
2023/07/02 05:22:39;;;;;;;;;16.80;16.20;;;;;17.45;67.26;98546.44;4914850;29;8882;-74
2023/07/02 05:25:08;;;;;;;;;16.80;15.80;;;;;17.76;66.00;98547.94;4914828;29;9014;-75
2023/07/02 05:27:37;;;;;;;;;15.40;13.80;;;;;18.05;64.77;98549.63;4914681;29;8884;-76
2023/07/02 05:30:07;;;;;;;;;17.60;16.20;;;;;18.05;64.81;98552.28;4912220;29;8863;-74
2023/07/02 05:32:36;;;;;;;;;16.60;16.60;;;;;18.23;64.27;98556.34;4881422;29;8851;-74
2023/07/02 05:35:06;;;;;;;;;15.00;14.40;;;;;18.09;64.87;98562.59;4914411;29;8914;-76
2023/07/02 05:37:35;;;;;;;;;14.80;14.60;;;;;18.59;63.23;98562.75;4914420;29;8875;-74
2023/07/02 05:40:06;;;;;;;;;15.20;14.60;;;;;18.93;62.28;98563.91;4914398;29;8929;-75
2023/07/02 05:42:36;;;;;;;;;12.60;12.60;;;;;19.26;61.38;98570.41;4914071;29;8879;-75
2023/07/02 05:45:05;;;;;;;;;43.25;37.25;;;;;19.57;60.40;98567.34;4914276;29;8962;-76
2023/07/02 05:47:34;;;;;;;;;29.20;24.60;;;;;19.73;59.67;98564.41;4914075;29;8985;-74
2023/07/02 05:50:03;;;;;;;;;21.80;21.40;;;;;19.92;58.73;98572.72;4911472;29;8879;-75
2023/07/02 05:52:31;;;;;;;;;14.00;13.60;;;;;19.83;58.90;98576.06;4896500;29;8859;-75
2023/07/02 05:55:00;;;;;;;;;19.40;17.80;;;;;20.04;58.33;98570.94;4914109;29;8895;-74
2023/07/02 05:57:30;;;;;;;;;20.60;19.40;;;;;20.28;58.24;98582.44;4916698;29;8882;-75
2023/07/02 05:59:59;;;;;;;;;13.80;13.80;;;;;20.07;58.26;98576.06;4914694;29;8879;-75
2023/07/02 06:02:28;;;;;;;;;18.60;16.40;;;;;20.14;58.31;98577.28;4914196;29;8875;-75
2023/07/02 06:04:57;;;;;;;;;15.40;14.80;;;;;20.48;57.63;98585.38;4914172;29;8872;-75
2023/07/02 06:07:27;;;;;;;;;20.80;19.60;;;;;20.54;57.30;98590.25;4914010;29;8887;-76
2023/07/02 06:09:56;;;;;;;;;19.00;17.20;;;;;20.42;57.92;98591.19;4913900;29;8872;-76
2023/07/02 06:12:24;;;;;;;;;30.25;29.00;;;;;20.45;57.17;98590.97;4912579;29;8886;-73
2023/07/02 06:14:54;;;;;;;;;14.80;14.80;;;;;20.39;57.59;98591.47;4914211;29;8922;-74
2023/07/02 06:17:24;;;;;;;;;13.40;13.40;;;;;20.16;58.14;98599.38;4913024;29;8868;-74
2023/07/02 06:19:53;;;;;;;;;18.40;17.00;;;;;20.04;58.67;98600.28;4913455;29;8898;-74
2023/07/02 06:22:23;;;;;;;;;17.40;15.00;;;;;20.26;58.29;98604.88;4913780;29;8879;-75
2023/07/02 06:24:51;;;;;;;;;17.20;17.20;;;;;20.19;57.97;98606.28;4911476;29;8867;-75
2023/07/02 06:27:20;;;;;;;;;15.00;13.80;;;;;20.37;57.91;98615.59;4913229;29;8867;-74
2023/07/02 06:29:49;;;;;;;;;19.00;16.00;;;;;19.87;59.35;98614.88;4926976;29;9026;-76
2023/07/02 06:32:20;;;;;;;;;16.60;15.80;;;;;20.11;59.10;98620.19;4913484;29;8897;-75
2023/07/02 06:34:48;;;;;;;;;18.40;17.60;;;;;20.02;59.09;98624.41;4911981;29;8890;-75
2023/07/02 06:37:17;;;;;;;;;18.80;17.40;;;;;20.22;58.98;98622.06;4913501;29;8887;-76
2023/07/02 06:39:46;;;;;;;;;17.60;16.20;;;;;19.94;59.13;98625.97;4913313;29;8872;-75
2023/07/02 06:42:15;;;;;;;;;15.40;15.40;;;;;19.45;61.10;98623.22;4913072;29;8882;-75
2023/07/02 06:44:45;;;;;;;;;26.75;24.00;;;;;20.00;60.23;98620.16;4911498;29;8887;-76
2023/07/02 06:47:14;;;;;;;;;12.40;11.60;;;;;20.39;58.71;98620.81;4911875;29;9621;-75
2023/07/02 06:49:44;;;;;;;;;18.20;17.00;;;;;20.83;57.54;98622.69;4913022;29;8949;-76
2023/07/02 06:52:13;;;;;;;;;15.00;14.60;;;;;21.08;56.51;98620.78;4912946;29;8879;-75
2023/07/02 06:54:41;;;;;;;;;18.60;14.20;;;;;20.78;57.48;98629.38;4912829;29;8883;-75
2023/07/02 06:57:11;;;;;;;;;15.80;15.80;;;;;21.15;56.47;98626.50;4910761;29;8871;-74
2023/07/02 06:59:39;;;;;;;;;16.40;14.40;;;;;20.36;58.60;98631.72;4912819;29;9010;-75
2023/07/02 07:02:08;;;;;;;;;16.00;14.00;;;;;21.06;57.17;98633.41;4912637;29;8867;-75
2023/07/02 07:04:37;;;;;;;;;15.20;15.20;;;;;21.36;56.01;98626.59;4913063;29;8867;-76
2023/07/02 07:07:08;;;;;;;;;14.60;14.00;;;;;21.69;55.04;98628.38;4913209;29;8859;-76
2023/07/02 07:09:36;;;;;;;;;17.60;17.20;;;;;22.08;53.92;98634.09;4913671;29;8921;-75
2023/07/02 07:12:06;;;;;;;;;14.00;14.00;;;;;22.30;53.33;98635.84;4913358;29;8871;-76
2023/07/02 07:14:35;;;;;;;;;18.80;18.80;;;;;22.44;52.54;98634.66;4913122;29;8899;-76
2023/07/02 07:17:04;;;;;;;;;23.00;22.00;;;;;22.33;52.56;98632.06;4913035;29;9005;-76
2023/07/02 07:19:33;;;;;;;;;24.00;20.40;;;;;22.54;52.58;98634.72;4912642;29;8852;-75
2023/07/02 07:22:02;;;;;;;;;18.80;17.80;;;;;22.11;52.94;98641.88;4912748;29;8883;-75
2023/07/02 07:24:32;;;;;;;;;21.40;20.20;;;;;21.33;55.71;98642.88;4894719;29;8863;-75
2023/07/02 07:27:01;;;;;;;;;19.60;18.60;;;;;21.83;54.46;98640.63;4913262;29;8978;-74
2023/07/02 07:29:30;;;;;;;;;21.40;20.60;;;;;22.03;53.62;98638.97;4912531;29;8899;-77
2023/07/02 07:31:58;;;;;;;;;18.60;18.20;;;;;21.08;56.79;98646.66;4912400;29;8864;-75
2023/07/02 07:34:27;;;;;;;;;15.00;15.00;;;;;21.25;56.73;98649.69;4912602;29;8879;-75
2023/07/02 07:36:56;;;;;;;;;17.40;17.20;;;;;20.33;59.21;98642.63;4912376;29;8863;-75
2023/07/02 07:39:25;;;;;;;;;19.80;18.40;;;;;19.79;61.69;98652.78;4912187;29;8871;-74
2023/07/02 07:41:56;;;;;;;;;19.80;17.00;;;;;19.94;60.84;98647.28;4912415;29;8852;-74
2023/07/02 07:44:28;;;;;;;;;18.00;17.40;;;;;19.88;61.29;98649.44;4915624;29;8893;-74
2023/07/02 07:46:57;;;;;;;;;16.60;16.40;;;;;20.73;59.25;98655.56;4913037;29;8895;-77
2023/07/02 07:49:26;;;;;;;;;24.20;21.00;;;;;21.03;57.28;98647.88;4912412;29;8966;-75
2023/07/02 07:51:55;;;;;;;;;18.80;18.80;;;;;20.64;58.66;98649.13;4926516;29;8895;-75
2023/07/02 07:54:24;;;;;;;;;16.40;16.40;;;;;21.37;57.04;98650.53;4912016;29;8879;-74
2023/07/02 07:56:55;;;;;;;;;16.80;15.60;;;;;21.75;55.59;98648.41;4912207;29;8909;-76
2023/07/02 07:59:24;;;;;;;;;16.00;16.00;;;;;22.34;54.62;98655.19;4909609;29;8994;-76
2023/07/02 08:01:53;;;;;;;;;20.00;19.00;;;;;21.04;57.86;98662.09;4909763;29;8987;-76
2023/07/02 08:04:22;;;;;;;;;21.60;19.80;;;;;21.26;56.41;98659.41;4909647;29;8884;-73
2023/07/02 08:06:51;;;;;;;;;18.80;17.60;;;;;20.50;59.36;98660.88;4909744;29;8890;-76
2023/07/02 08:09:19;;;;;;;;;21.00;18.40;;;;;20.82;58.04;98655.72;4909482;29;8864;-76
2023/07/02 08:11:48;;;;;;;;;19.80;15.80;;;;;21.00;58.28;98642.78;4909652;29;9199;-75
2023/07/02 08:14:18;;;;;;;;;20.00;18.80;;;;;21.17;57.33;98648.63;4909300;29;8880;-75
2023/07/02 08:16:47;;;;;;;;;20.60;20.00;;;;;21.42;56.46;98645.66;4909528;29;8884;-74
2023/07/02 08:19:16;;;;;;;;;23.00;22.40;;;;;21.51;56.65;98645.91;4912571;29;9044;-75
2023/07/02 08:21:45;;;;;;;;;19.80;17.60;;;;;22.19;54.06;98643.91;4911934;29;8984;-75
2023/07/02 08:24:14;;;;;;;;;60.50;48.25;;;;;22.76;52.39;98636.44;4909647;29;9022;-76
2023/07/02 08:26:44;;;;;;;;;58.50;47.50;;;;;23.24;50.58;98635.81;4909425;29;9671;-76
2023/07/02 08:29:13;;;;;;;;;23.40;19.40;;;;;23.34;48.92;98639.41;4909654;29;8892;-75
2023/07/02 08:31:44;;;;;;;;;19.80;18.80;;;;;21.94;53.97;98658.47;4911785;29;8883;-75
2023/07/02 08:34:13;;;;;;;;;19.40;19.40;;;;;21.79;55.01;98640.03;4911833;29;8918;-76
2023/07/02 08:36:43;;;;;;;;;21.60;21.60;;;;;22.14;52.92;98646.94;4911961;29;8859;-75
2023/07/02 08:39:12;;;;;;;;;15.60;14.40;;;;;21.91;53.75;98645.34;4911699;29;8994;-75
2023/07/02 08:41:45;;;;;;;;;20.80;18.40;;;;;22.14;53.36;98656.81;4913459;29;8962;-75
2023/07/02 08:44:14;;;;;;;;;20.40;19.80;;;;;22.37;53.79;98653.09;4913902;29;8867;-74
2023/07/02 08:46:47;;;;;;;;;17.80;17.80;;;;;23.12;52.87;98642.28;4915569;29;9018;-75
2023/07/02 08:49:16;;;;;;;;;19.00;17.00;;;;;22.67;53.04;98646.09;4915298;29;8879;-76
2023/07/02 08:51:46;;;;;;;;;19.40;17.80;;;;;22.81;52.26;98648.44;4915029;29;8961;-74
2023/07/02 08:54:15;;;;;;;;;20.40;19.20;;;;;22.70;52.57;98645.84;4914963;29;8887;-74
2023/07/02 08:56:46;;;;;;;;;16.40;14.20;;;;;22.73;52.63;98644.72;4914876;29;9036;-74
2023/07/02 08:59:14;;;;;;;;;20.60;18.00;;;;;23.34;51.73;98649.28;4915180;29;9014;-76
2023/07/02 09:01:49;;;;;;;;;18.60;15.80;;;;;23.25;51.31;98642.03;4915205;29;8974;-76
2023/07/02 09:04:21;;;;;;;;;37.25;34.00;;;;;23.16;51.70;98655.25;4912853;29;8950;-75
2023/07/02 09:06:52;;;;;;;;;17.40;16.40;;;;;23.12;51.73;98651.16;4915040;29;8879;-74
2023/07/02 09:09:20;;;;;;;;;18.40;18.00;;;;;23.02;52.31;98658.31;4915386;29;8901;-76
2023/07/02 09:11:50;;;;;;;;;18.60;16.60;;;;;22.71;53.15;98652.91;4914958;29;8927;-75
2023/07/02 09:14:27;;;;;;;;;20.80;19.20;;;;;22.54;54.17;98662.38;4917748;29;8863;-74
2023/07/02 09:17:08;;;;;;;;;18.80;18.80;;;;;22.04;55.77;98654.91;4917250;29;8864;-75
2023/07/02 09:19:49;;;;;;;;;19.00;19.00;;;;;21.59;57.79;98654.16;4914665;29;8871;-74
2023/07/02 09:22:18;;;;;;;;;19.60;18.40;;;;;22.52;54.93;98658.97;4914647;29;8856;-75
2023/07/02 09:24:53;;;;;;;;;25.20;23.40;;;;;22.44;54.17;98657.94;4897150;29;8910;-74
2023/07/02 09:27:22;;;;;;;;;26.75;26.75;;;;;22.26;54.98;98654.97;4914483;29;8868;-75
2023/07/02 09:29:52;;;;;;;;;34.00;32.00;;;;;22.60;53.66;98659.19;4912090;29;9602;-74
2023/07/02 09:32:27;;;;;;;;;22.40;19.80;;;;;22.89;52.31;98661.22;4916985;29;8851;-75
2023/07/02 09:34:56;;;;;;;;;21.60;20.80;;;;;22.25;54.53;98655.94;4913196;29;8949;-76
2023/07/02 09:37:25;;;;;;;;;19.60;19.00;;;;;21.70;56.32;98661.34;4914671;29;8875;-74
2023/07/02 09:39:56;;;;;;;;;22.60;22.00;;;;;20.77;59.43;98667.75;4920206;29;8874;-75
2023/07/02 09:42:26;;;;;;;;;20.40;19.60;;;;;20.74;59.98;98671.47;4909831;29;10099;-76
2023/07/02 09:44:56;;;;;;;;;23.40;21.80;;;;;20.74;59.90;98665.28;4895290;29;9004;-76
2023/07/02 09:47:30;;;;;;;;;18.20;16.00;;;;;20.64;58.79;98670.50;4895224;29;8904;-76
2023/07/02 09:50:03;;;;;;;;;19.80;19.80;;;;;21.03;58.10;98665.72;4909548;29;8947;-74
2023/07/02 09:52:34;;;;;;;;;19.40;18.80;;;;;21.31;57.31;98669.72;4894975;29;8971;-76
2023/07/02 09:55:03;;;;;;;;;18.60;18.60;;;;;20.80;59.69;98673.69;4909360;29;9681;-78
2023/07/02 09:57:33;;;;;;;;;25.60;24.60;;;;;20.06;62.05;98670.38;4928747;29;8891;-76
2023/07/02 10:00:05;;;;;;;;;23.40;21.80;;;;;19.94;62.33;98685.47;4913849;29;9618;-75
2023/07/02 10:02:36;;;;;;;;;19.80;19.40;;;;;20.13;61.26;98673.44;4896442;29;8879;-75
2023/07/02 10:05:05;;;;;;;;;20.20;19.40;;;;;20.06;61.59;98687.22;4913783;29;8867;-76
2023/07/02 10:07:34;;;;;;;;;22.60;21.80;;;;;19.82;62.52;98681.03;4914724;29;8863;-76
2023/07/02 10:10:03;;;;;;;;;27.40;25.80;;;;;19.76;63.17;98686.81;4913591;29;8927;-76
2023/07/02 10:12:32;;;;;;;;;21.20;20.20;;;;;19.75;63.55;98690.47;4915122;29;8887;-74
2023/07/02 10:15:01;;;;;;;;;19.60;18.80;;;;;19.65;63.38;98696.47;4895499;29;8867;-75
2023/07/02 10:17:32;;;;;;;;;21.60;18.00;;;;;19.69;63.83;98699.78;4913456;29;8891;-76
2023/07/02 10:20:06;;;;;;;;;18.80;17.60;;;;;19.94;63.31;98698.81;4913411;29;8930;-76
2023/07/02 10:22:44;;;;;;;;;24.00;21.20;;;;;20.09;63.50;98700.34;4912354;29;8890;-75
2023/07/02 10:25:12;;;;;;;;;24.40;23.00;;;;;20.17;63.90;98691.78;4911017;29;9807;-76
2023/07/02 10:27:43;;;;;;;;;23.40;23.40;;;;;20.46;63.22;98689.63;4913204;29;8851;-76
2023/07/02 10:30:12;;;;;;;;;24.00;22.60;;;;;20.20;63.77;98693.34;4913509;29;8875;-76
2023/07/02 10:32:41;;;;;;;;;27.25;26.00;;;;;19.81;65.20;98692.69;4913582;29;8867;-76
2023/07/02 10:35:18;;;;;;;;;23.40;22.60;;;;;19.52;67.57;98683.16;4913692;29;8986;-76
2023/07/02 10:37:47;;;;;;;;;29.25;28.00;;;;;19.85;67.48;98680.81;4913196;29;8875;-76
2023/07/02 10:40:16;;;;;;;;;26.75;25.75;;;;;19.77;66.38;98673.38;4913466;29;8867;-76
2023/07/02 10:42:46;;;;;;;;;30.75;30.00;;;;;20.02;65.80;98663.56;4913541;29;8875;-76
2023/07/02 10:45:15;;;;;;;;;24.60;22.80;;;;;20.33;62.65;98670.19;4913379;29;8875;-76
2023/07/02 10:47:45;;;;;;;;;27.60;25.00;;;;;21.25;60.20;98662.19;4913419;29;9716;-75
2023/07/02 10:50:20;;;;;;;;;23.20;21.80;;;;;21.52;59.04;98666.31;4913219;29;8906;-75
2023/07/02 10:52:50;;;;;;;;;14.40;14.40;;;;;21.90;57.00;98665.91;4913132;29;8856;-74
2023/07/02 10:55:20;;;;;;;;;24.00;23.00;;;;;22.31;55.32;98653.59;4894627;29;8986;-76
2023/07/02 10:57:51;;;;;;;;;21.60;21.00;;;;;21.59;57.33;98649.66;4927686;29;8884;-75
2023/07/02 11:00:20;;;;;;;;;20.80;20.80;;;;;21.68;57.32;98649.91;4910897;29;8899;-76
2023/07/02 11:02:49;;;;;;;;;21.80;21.40;;;;;21.56;58.02;98641.88;4910965;29;8882;-76
2023/07/02 11:05:20;;;;;;;;;21.80;21.80;;;;;21.67;57.43;98641.03;4912593;29;8990;-74
2023/07/02 11:07:56;;;;;;;;;21.00;19.80;;;;;21.98;56.85;98639.34;4913030;29;8883;-75
2023/07/02 11:10:26;;;;;;;;;18.60;18.00;;;;;22.55;53.88;98629.25;4896309;29;8965;-75
2023/07/02 11:12:55;;;;;;;;;23.20;22.80;;;;;22.67;53.86;98634.53;4912834;29;8954;-76
2023/07/02 11:15:24;;;;;;;;;22.60;22.60;;;;;23.17;52.98;98626.63;4912705;29;8887;-75
2023/07/02 11:17:52;;;;;;;;;21.40;20.00;;;;;22.91;51.22;98645.00;4912997;29;8954;-75
2023/07/02 11:20:23;;;;;;;;;22.00;22.00;;;;;22.34;54.67;98642.63;4914474;29;8859;-74
2023/07/02 11:22:52;;;;;;;;;38.50;32.50;;;;;22.60;55.47;98637.75;4910747;29;9618;-75
2023/07/02 11:25:21;;;;;;;;;25.00;22.00;;;;;22.81;54.95;98640.41;4910375;29;9653;-75
2023/07/02 11:27:50;;;;;;;;;18.60;18.40;;;;;22.85;54.90;98645.50;4912356;29;8879;-76
2023/07/02 11:30:19;;;;;;;;;18.40;17.20;;;;;22.35;57.07;98648.84;4910189;29;8867;-77
2023/07/02 11:32:49;;;;;;;;;18.40;17.00;;;;;22.40;58.41;98658.19;4912496;29;8962;-77
2023/07/02 11:35:19;;;;;;;;;19.60;18.40;;;;;21.76;60.98;98652.81;4912504;29;8986;-80
2023/07/02 11:37:49;;;;;;;;;50.00;40.50;;;;;22.42;58.84;98650.88;4912375;29;8875;-75